createdAt,value
2022-12-15T00:02:25.802Z,0.74
2022-12-15T00:05:12.035Z,0.75
2022-12-15T00:07:58.112Z,1.02
2022-12-15T00:10:44.505Z,0.77
2022-12-15T00:13:31.831Z,0.52
2022-12-15T00:16:18.547Z,0.47
2022-12-15T00:19:04.728Z,1.13
2022-12-15T00:21:50.760Z,0.70
2022-12-15T00:24:36.725Z,1.19
2022-12-15T00:27:22.699Z,1.54
2022-12-15T00:30:08.661Z,1.34
2022-12-15T00:32:55.082Z,1.22
2022-12-15T00:35:41.132Z,1.28
2022-12-15T00:38:28.763Z,1.07
2022-12-15T00:40:59.531Z,1.00
2022-12-15T00:43:32.657Z,1.28
2022-12-15T00:46:19.213Z,1.52
2022-12-15T00:48:47.494Z,1.20
2022-12-15T00:51:15.512Z,1.56
2022-12-15T00:54:01.522Z,1.53
2022-12-15T00:56:47.861Z,1.48
2022-12-15T00:59:34.319Z,1.48
2022-12-15T01:02:21.299Z,1.41
2022-12-15T01:05:07.298Z,1.54
2022-12-15T01:07:53.446Z,1.49
2022-12-15T01:10:39.478Z,1.42
2022-12-15T01:13:25.625Z,0.90
2022-12-15T01:16:11.619Z,1.49
2022-12-15T01:18:57.923Z,1.24
2022-12-15T01:21:26.500Z,1.27
2022-12-15T01:23:54.177Z,1.06
2022-12-15T01:26:21.525Z,1.31
2022-12-15T01:28:48.897Z,1.90
2022-12-15T01:31:16.567Z,2.22
2022-12-15T01:33:44.008Z,1.81
2022-12-15T01:36:12.061Z,1.69
2022-12-15T01:38:39.700Z,1.54
2022-12-15T01:41:10.541Z,2.06
2022-12-15T01:43:39.826Z,2.00
2022-12-15T01:46:16.562Z,1.89
2022-12-15T01:49:17.526Z,1.85
2022-12-15T01:51:49.041Z,1.78
2022-12-15T01:54:22.127Z,1.77
2022-12-15T01:56:52.613Z,1.53
2022-12-15T01:59:33.178Z,1.94
2022-12-15T02:02:01.231Z,1.98
2022-12-15T02:04:29.204Z,2.02
2022-12-15T02:06:56.557Z,1.95
2022-12-15T02:09:24.727Z,2.05
2022-12-15T02:11:59.793Z,1.79
2022-12-15T02:14:53.905Z,1.44
2022-12-15T02:17:50.045Z,1.68
2022-12-15T02:20:37.500Z,1.44
2022-12-15T02:23:29.678Z,1.73
2022-12-15T02:26:05.921Z,2.04
2022-12-15T02:29:01.094Z,1.94
2022-12-15T02:31:50.772Z,2.12
2022-12-15T02:34:18.527Z,2.17
2022-12-15T02:36:49.936Z,2.28
2022-12-15T02:39:18.431Z,1.89
2022-12-15T02:41:47.755Z,1.40
2022-12-15T02:44:19.673Z,1.92
2022-12-15T02:47:13.868Z,2.14
2022-12-15T02:49:59.523Z,2.51
2022-12-15T02:53:04.675Z,2.53
2022-12-15T02:55:50.656Z,2.70
2022-12-15T02:58:28.561Z,2.44
2022-12-15T03:01:09.139Z,2.72
2022-12-15T03:03:38.739Z,2.62
2022-12-15T03:06:06.582Z,2.63
2022-12-15T03:08:33.933Z,2.80
2022-12-15T03:11:01.666Z,2.66
2022-12-15T03:13:29.396Z,2.84
2022-12-15T03:15:58.528Z,2.71
2022-12-15T03:18:26.176Z,2.49
2022-12-15T03:20:53.720Z,2.73
2022-12-15T03:23:23.019Z,2.97
2022-12-15T03:25:50.643Z,2.83
2022-12-15T03:28:18.085Z,2.67
2022-12-15T03:30:45.489Z,3.19
2022-12-15T03:33:18.447Z,3.02
2022-12-15T03:35:45.821Z,3.22
2022-12-15T03:38:13.321Z,2.98
2022-12-15T03:40:40.978Z,2.26
2022-12-15T03:43:08.296Z,2.02
2022-12-15T03:45:35.909Z,1.86
2022-12-15T03:48:03.683Z,1.52
2022-12-15T03:50:31.067Z,1.74
2022-12-15T03:53:03.174Z,2.08
2022-12-15T03:55:31.234Z,1.79
2022-12-15T03:57:59.266Z,1.90
2022-12-15T04:00:27.238Z,2.33
2022-12-15T04:02:55.021Z,1.98
2022-12-15T04:05:31.640Z,2.06
2022-12-15T04:08:00.382Z,1.76
2022-12-15T04:10:34.051Z,2.15
2022-12-15T04:13:08.302Z,2.18
2022-12-15T04:15:37.340Z,2.50
2022-12-15T04:18:06.916Z,2.45
2022-12-15T04:20:34.276Z,2.59
2022-12-15T04:23:01.714Z,2.54
2022-12-15T04:25:48.001Z,2.04
2022-12-15T04:28:33.688Z,2.16
2022-12-15T04:31:28.382Z,1.80
2022-12-15T04:34:24.485Z,1.98
2022-12-15T04:37:12.372Z,2.09
2022-12-15T04:39:59.979Z,1.95
2022-12-15T04:42:47.709Z,2.08
2022-12-15T04:45:33.827Z,2.51
2022-12-15T04:48:20.033Z,2.87
2022-12-15T04:51:05.896Z,2.41
2022-12-15T04:53:51.961Z,1.90
2022-12-15T04:56:37.856Z,1.67
2022-12-15T04:59:24.185Z,1.84
2022-12-15T05:02:10.769Z,1.83
2022-12-15T05:04:57.012Z,2.29
2022-12-15T05:07:43.983Z,2.39
2022-12-15T05:10:30.356Z,1.79
2022-12-15T05:13:24.420Z,1.85
2022-12-15T05:16:10.754Z,1.71
2022-12-15T05:18:56.447Z,1.79
2022-12-15T05:21:42.593Z,1.03
2022-12-15T05:24:28.697Z,1.34
2022-12-15T05:27:14.716Z,1.41
2022-12-15T05:30:00.601Z,1.80
2022-12-15T05:32:28.229Z,1.31
2022-12-15T05:34:55.683Z,1.68
2022-12-15T05:37:23.013Z,2.02
2022-12-15T05:39:50.636Z,2.03
2022-12-15T05:42:18.027Z,1.74
2022-12-15T05:44:45.418Z,1.50
2022-12-15T05:47:13.111Z,1.62
2022-12-15T05:49:40.577Z,1.40
2022-12-15T05:52:08.234Z,1.33
2022-12-15T05:54:35.886Z,1.48
2022-12-15T05:57:03.260Z,1.37
2022-12-15T05:59:30.645Z,1.07
2022-12-15T06:01:58.286Z,1.41
2022-12-15T06:04:26.004Z,1.65
2022-12-15T06:06:53.414Z,1.59
2022-12-15T06:09:20.833Z,1.62
2022-12-15T06:11:48.481Z,1.91
2022-12-15T06:14:15.872Z,1.36
2022-12-15T06:16:50.350Z,1.55
2022-12-15T06:19:20.137Z,1.86
2022-12-15T06:21:47.822Z,1.96
2022-12-15T06:24:15.319Z,2.11
2022-12-15T06:26:43.003Z,2.25
2022-12-15T06:29:12.003Z,1.17
2022-12-15T06:31:40.283Z,0.95
2022-12-15T06:34:10.575Z,1.69
2022-12-15T06:36:39.053Z,1.55
2022-12-15T06:39:09.020Z,1.62
2022-12-15T06:41:36.965Z,1.27
2022-12-15T06:44:07.725Z,1.20
2022-12-15T06:46:35.328Z,1.45
2022-12-15T06:49:03.326Z,2.19
2022-12-15T06:51:30.816Z,1.52
2022-12-15T06:53:59.091Z,1.41
2022-12-15T06:56:34.151Z,1.59
2022-12-15T06:59:06.793Z,1.58
2022-12-15T07:01:34.879Z,1.74
2022-12-15T07:04:04.806Z,1.77
2022-12-15T07:06:36.589Z,1.96
2022-12-15T07:09:07.893Z,2.16
2022-12-15T07:11:35.865Z,2.22
2022-12-15T07:14:03.777Z,1.53
2022-12-15T07:16:31.484Z,1.66
2022-12-15T07:18:58.999Z,1.62
2022-12-15T07:21:26.459Z,1.85
2022-12-15T07:23:56.380Z,2.23
2022-12-15T07:26:25.197Z,2.35
2022-12-15T07:28:53.822Z,2.30
2022-12-15T07:31:22.549Z,1.88
2022-12-15T07:33:52.243Z,1.15
2022-12-15T07:36:20.464Z,1.74
2022-12-15T07:38:50.323Z,2.42
2022-12-15T07:41:19.808Z,1.92
2022-12-15T07:43:47.896Z,2.35
2022-12-15T07:46:16.596Z,2.36
2022-12-15T07:48:44.019Z,2.09
2022-12-15T07:51:20.250Z,2.27
2022-12-15T07:53:49.968Z,1.92
2022-12-15T07:56:19.231Z,1.52
2022-12-15T07:58:46.603Z,2.26
2022-12-15T08:01:14.499Z,1.72
2022-12-15T08:03:42.393Z,1.71
2022-12-15T08:06:12.367Z,1.92
2022-12-15T08:08:40.202Z,2.35
2022-12-15T08:11:09.864Z,2.09
2022-12-15T08:16:25.990Z,2.77
2022-12-15T08:18:53.872Z,2.35
2022-12-15T08:21:21.280Z,2.61
2022-12-15T08:23:49.515Z,2.36
2022-12-15T08:26:18.342Z,2.60
2022-12-15T08:28:46.152Z,2.97
2022-12-15T08:31:17.214Z,2.79
2022-12-15T08:33:45.958Z,2.62
2022-12-15T08:36:16.295Z,2.88
2022-12-15T08:38:45.538Z,2.93
2022-12-15T08:41:15.072Z,1.88
2022-12-15T08:43:48.228Z,1.49
2022-12-15T08:46:27.941Z,2.19
2022-12-15T08:48:56.119Z,2.56
2022-12-15T08:51:24.732Z,3.34
2022-12-15T08:53:52.563Z,3.03
2022-12-15T08:56:24.118Z,2.98
2022-12-15T08:58:58.323Z,2.81
2022-12-15T09:01:27.722Z,2.78
2022-12-15T09:03:56.605Z,3.43
2022-12-15T09:06:27.337Z,2.68
2022-12-15T09:08:59.792Z,2.74
2022-12-15T09:11:29.081Z,2.36
2022-12-15T09:13:59.864Z,2.95
2022-12-15T09:16:27.951Z,2.40
2022-12-15T09:18:57.521Z,2.73
2022-12-15T09:21:26.862Z,3.27
2022-12-15T09:23:57.772Z,3.25
2022-12-15T09:26:25.401Z,3.06
2022-12-15T09:28:54.907Z,2.94
2022-12-15T09:31:25.055Z,2.64
2022-12-15T09:33:55.232Z,2.56
2022-12-15T09:36:22.945Z,2.83
2022-12-15T09:38:50.345Z,2.07
2022-12-15T09:41:24.181Z,2.51
2022-12-15T09:43:56.639Z,2.36
2022-12-15T09:47:01.529Z,2.90
2022-12-15T09:49:47.545Z,2.78
2022-12-15T09:52:18.878Z,2.78
2022-12-15T09:54:46.632Z,2.92
2022-12-15T09:57:26.959Z,2.77
2022-12-15T10:00:21.647Z,3.15
2022-12-15T10:03:08.339Z,3.51
2022-12-15T10:06:22.294Z,3.45
2022-12-15T10:09:08.433Z,3.12
2022-12-15T10:11:38.719Z,2.82
2022-12-15T10:14:16.260Z,3.27
2022-12-15T10:16:46.547Z,3.51
2022-12-15T10:19:41.689Z,4.05
2022-12-15T10:22:30.148Z,3.79
2022-12-15T10:25:09.555Z,3.77
2022-12-15T10:28:14.692Z,4.08
2022-12-15T10:31:11.522Z,3.60
2022-12-15T10:33:47.069Z,4.28
2022-12-15T10:36:16.601Z,3.55
2022-12-15T10:38:47.503Z,3.18
2022-12-15T10:41:22.802Z,3.25
2022-12-15T10:43:51.407Z,3.92
2022-12-15T10:46:19.017Z,3.84
2022-12-15T10:48:57.130Z,3.67
2022-12-15T10:51:31.530Z,3.74
2022-12-15T10:54:01.931Z,3.62
2022-12-15T10:56:33.636Z,3.77
2022-12-15T10:59:06.374Z,3.64
2022-12-15T11:01:34.933Z,3.67
2022-12-15T11:04:02.579Z,3.65
2022-12-15T11:06:33.074Z,3.53
2022-12-15T11:09:27.280Z,3.84
2022-12-15T11:12:13.320Z,3.83
2022-12-15T11:14:46.424Z,3.98
2022-12-15T11:17:20.582Z,3.69
2022-12-15T11:19:49.104Z,3.45
2022-12-15T11:22:26.318Z,3.88
2022-12-15T11:24:59.875Z,3.79
2022-12-15T11:27:33.003Z,3.90
2022-12-15T11:30:09.785Z,3.89
2022-12-15T11:32:38.896Z,3.95
2022-12-15T11:35:12.307Z,3.88
2022-12-15T11:37:43.308Z,4.01
2022-12-15T11:40:20.399Z,3.17
2022-12-15T11:43:12.914Z,3.59
2022-12-15T11:45:59.344Z,3.74
2022-12-15T11:48:41.894Z,4.17
2022-12-15T11:51:15.447Z,4.09
2022-12-15T11:54:00.588Z,4.28
2022-12-15T11:56:39.030Z,4.06
2022-12-15T11:59:27.717Z,4.55
2022-12-15T12:02:14.169Z,4.77
2022-12-15T12:05:01.410Z,4.51
2022-12-15T12:08:10.032Z,4.36
2022-12-15T12:11:09.338Z,4.31
2022-12-15T12:13:41.970Z,4.17
2022-12-15T12:16:36.024Z,4.49
2022-12-15T12:19:10.176Z,4.99
2022-12-15T12:21:51.050Z,4.53
2022-12-15T12:24:43.031Z,4.75
2022-12-15T12:27:18.092Z,4.68
2022-12-15T12:29:48.713Z,4.48
2022-12-15T12:32:42.579Z,3.99
2022-12-15T12:35:33.499Z,4.11
2022-12-15T12:38:06.892Z,4.42
2022-12-15T12:40:54.650Z,4.40
2022-12-15T12:43:43.990Z,4.31
2022-12-15T12:46:23.705Z,4.61
2022-12-15T12:49:03.620Z,4.27
2022-12-15T12:51:31.911Z,4.23
2022-12-15T12:54:00.030Z,4.01
2022-12-15T12:56:45.449Z,4.42
2022-12-15T12:59:28.416Z,4.80
2022-12-15T13:02:11.201Z,4.28
2022-12-15T13:04:41.270Z,4.08
2022-12-15T13:07:38.659Z,3.84
2022-12-15T13:10:09.412Z,3.98
2022-12-15T13:12:54.541Z,4.28
2022-12-15T13:15:31.124Z,4.13
2022-12-15T13:18:14.568Z,3.48
2022-12-15T13:20:43.668Z,3.85
2022-12-15T13:23:20.053Z,3.66
2022-12-15T13:25:56.623Z,3.31
2022-12-15T13:28:28.028Z,3.37
2022-12-15T13:31:21.165Z,3.61
2022-12-15T13:33:52.314Z,3.81
2022-12-15T13:36:38.379Z,4.18
2022-12-15T13:39:12.020Z,4.22
2022-12-15T13:42:23.745Z,4.02
2022-12-15T13:44:41.441Z,3.69
2022-12-15T13:47:16.622Z,3.77
2022-12-15T13:49:53.240Z,4.14
2022-12-15T13:53:16.200Z,4.24
2022-12-15T13:55:35.348Z,4.00
2022-12-15T13:58:16.116Z,3.97
2022-12-15T14:00:54.831Z,4.22
2022-12-15T14:03:23.177Z,4.06
2022-12-15T14:05:58.996Z,3.92
2022-12-15T14:08:28.882Z,3.52
2022-12-15T14:11:00.028Z,2.67
2022-12-15T14:13:31.401Z,3.05
2022-12-15T14:16:05.249Z,3.27
2022-12-15T14:18:38.974Z,4.05
2022-12-15T14:21:18.898Z,3.47
2022-12-15T14:24:11.432Z,3.24
2022-12-15T14:26:33.882Z,3.19
2022-12-15T14:29:05.114Z,2.98
2022-12-15T14:31:32.642Z,3.05
2022-12-15T14:34:22.929Z,3.33
2022-12-15T14:36:51.483Z,3.00
2022-12-15T14:39:30.829Z,3.61
2022-12-15T14:41:59.169Z,3.25
2022-12-15T14:47:24.402Z,3.28
2022-12-15T14:49:51.883Z,3.33
2022-12-15T14:52:34.085Z,3.37
2022-12-15T14:55:04.296Z,3.24
2022-12-15T14:57:46.518Z,3.26
2022-12-15T15:00:32.859Z,3.56
2022-12-15T15:03:19.063Z,3.54
2022-12-15T15:05:50.294Z,3.89
2022-12-15T15:08:29.775Z,3.55
2022-12-15T15:11:02.632Z,3.25
2022-12-15T15:13:40.182Z,3.51
2022-12-15T15:16:17.935Z,3.73
2022-12-15T15:18:53.295Z,3.73
2022-12-15T15:21:23.015Z,3.76
2022-12-15T15:24:20.303Z,3.14
2022-12-15T15:26:47.747Z,3.24
2022-12-15T15:29:38.585Z,3.03
2022-12-15T15:32:14.770Z,2.86
2022-12-15T15:34:43.072Z,3.02
2022-12-15T15:37:24.196Z,2.97
2022-12-15T15:39:53.730Z,2.74
2022-12-15T15:42:21.177Z,2.29
2022-12-15T15:44:48.624Z,2.59
2022-12-15T15:47:25.104Z,2.80
2022-12-15T15:49:54.806Z,2.81
2022-12-15T15:52:22.616Z,2.85
2022-12-15T15:54:50.273Z,2.79
2022-12-15T15:57:18.637Z,3.03
2022-12-15T15:59:47.078Z,2.74
2022-12-15T16:02:15.083Z,2.66
2022-12-15T16:04:43.928Z,2.92
2022-12-15T16:07:20.557Z,2.77
2022-12-15T16:09:48.430Z,2.77
2022-12-15T16:12:30.786Z,2.76
2022-12-15T16:14:58.406Z,2.55
2022-12-15T16:17:25.784Z,2.78
2022-12-15T16:19:53.137Z,3.14
2022-12-15T16:22:21.690Z,2.75
2022-12-15T16:24:49.104Z,3.00
2022-12-15T16:27:16.602Z,2.87
2022-12-15T16:29:44.549Z,2.67
2022-12-15T16:32:13.240Z,3.08
2022-12-15T16:34:41.994Z,2.54
2022-12-15T16:37:24.167Z,2.51
2022-12-15T16:39:52.428Z,2.75
2022-12-15T16:42:20.439Z,3.11
2022-12-15T16:44:47.839Z,3.61
2022-12-15T16:47:16.102Z,3.20
2022-12-15T16:49:43.775Z,3.20
2022-12-15T16:52:19.318Z,2.70
2022-12-15T16:54:48.535Z,3.14
2022-12-15T16:57:16.309Z,3.05
2022-12-15T16:59:43.854Z,2.81
2022-12-15T17:02:29.644Z,3.20
2022-12-15T17:04:57.837Z,2.95
2022-12-15T17:07:27.813Z,2.91
2022-12-15T17:09:55.899Z,3.20
2022-12-15T17:12:23.278Z,3.31
2022-12-15T17:14:50.934Z,3.45
2022-12-15T17:17:19.500Z,2.56
2022-12-15T17:22:34.594Z,2.67
2022-12-15T17:25:02.358Z,2.91
2022-12-15T17:27:30.582Z,3.12
2022-12-15T17:30:00.087Z,2.90
2022-12-15T17:32:27.581Z,2.96
2022-12-15T17:34:55.065Z,2.90
2022-12-15T17:37:26.155Z,2.47
2022-12-15T17:39:56.839Z,2.40
2022-12-15T17:42:25.133Z,2.83
2022-12-15T17:44:54.136Z,2.47
2022-12-15T17:47:24.392Z,2.83
2022-12-15T17:49:52.482Z,3.24
2022-12-15T17:52:29.687Z,3.15
2022-12-15T17:54:57.931Z,3.20
2022-12-15T17:57:25.826Z,2.87
2022-12-15T17:59:53.553Z,3.36
2022-12-15T18:02:21.791Z,2.99
2022-12-15T18:04:50.024Z,3.23
2022-12-15T18:07:23.452Z,2.81
2022-12-15T18:09:52.067Z,2.98
2022-12-15T18:12:24.907Z,2.81
2022-12-15T18:14:54.279Z,3.00
2022-12-15T18:17:22.782Z,2.45
2022-12-15T18:19:50.489Z,2.30
2022-12-15T18:22:23.950Z,2.32
2022-12-15T18:24:54.046Z,2.52
2022-12-15T18:27:25.612Z,2.33
2022-12-15T18:29:53.703Z,2.31
2022-12-15T18:32:24.173Z,2.57
2022-12-15T18:34:53.237Z,2.32
2022-12-15T18:37:23.060Z,2.19
2022-12-15T18:39:51.219Z,2.26
2022-12-15T18:42:20.754Z,2.56
2022-12-15T18:44:52.086Z,2.74
2022-12-15T18:47:22.823Z,2.36
2022-12-15T18:49:52.137Z,2.23
2022-12-15T18:52:22.679Z,2.23
2022-12-15T18:54:52.075Z,2.13
2022-12-15T18:57:28.794Z,2.32
2022-12-15T18:59:58.955Z,2.53
2022-12-15T19:02:28.269Z,1.96
2022-12-15T19:04:58.339Z,1.91
2022-12-15T19:07:26.681Z,2.31
2022-12-15T19:09:54.740Z,2.55
2022-12-15T19:12:22.417Z,2.49
2022-12-15T19:14:52.735Z,2.66
2022-12-15T19:17:42.920Z,2.60
2022-12-15T19:20:37.549Z,2.90
2022-12-15T19:23:07.214Z,2.54
2022-12-15T19:25:35.672Z,2.72
2022-12-15T19:28:03.497Z,2.72
2022-12-15T19:30:36.972Z,2.91
2022-12-15T19:33:07.226Z,2.44
2022-12-15T19:35:36.761Z,2.29
2022-12-15T19:38:05.146Z,2.53
2022-12-15T19:40:38.230Z,2.57
2022-12-15T19:43:08.654Z,2.24
2022-12-15T19:45:37.196Z,2.73
2022-12-15T19:48:05.887Z,2.84
2022-12-15T19:50:37.659Z,2.56
2022-12-15T19:53:15.001Z,2.35
2022-12-15T19:55:44.328Z,1.88
2022-12-15T19:58:29.278Z,1.53
2022-12-15T20:01:03.908Z,1.43
2022-12-15T20:03:35.407Z,1.75
2022-12-15T20:06:05.124Z,1.59
2022-12-15T20:08:39.234Z,1.82
2022-12-15T20:11:24.971Z,1.79
2022-12-15T20:13:53.926Z,1.81
2022-12-15T20:16:23.018Z,1.53
2022-12-15T20:18:53.167Z,1.83
2022-12-15T20:21:23.456Z,2.53
2022-12-15T20:23:58.495Z,2.19
2022-12-15T20:26:29.938Z,2.33
2022-12-15T20:28:59.269Z,2.03
2022-12-15T20:31:27.859Z,2.31
2022-12-15T20:33:55.637Z,2.17
2022-12-15T20:36:27.864Z,2.49
2022-12-15T20:38:57.062Z,2.74
2022-12-15T20:41:27.634Z,2.17
2022-12-15T20:43:56.082Z,2.45
2022-12-15T20:46:27.090Z,2.19
2022-12-15T20:48:55.728Z,1.82
2022-12-15T20:51:35.184Z,1.93
2022-12-15T20:54:04.340Z,1.79
2022-12-15T20:56:32.238Z,1.83
2022-12-15T20:59:00.887Z,1.96
2022-12-15T21:01:36.876Z,2.10
2022-12-15T21:04:20.855Z,2.39
2022-12-15T21:06:54.435Z,2.12
2022-12-15T21:09:23.163Z,2.10
2022-12-15T21:11:52.430Z,2.43
2022-12-15T21:14:23.499Z,2.52
2022-12-15T21:16:51.407Z,2.77
2022-12-15T21:19:20.767Z,2.36
2022-12-15T21:21:52.203Z,2.08
2022-12-15T21:24:27.504Z,2.34
2022-12-15T21:26:55.509Z,2.18
2022-12-15T21:29:25.804Z,2.43
2022-12-15T21:31:53.169Z,2.71
2022-12-15T21:34:20.572Z,2.09
2022-12-15T21:36:52.614Z,2.00
2022-12-15T21:39:37.298Z,2.45
2022-12-15T21:42:10.582Z,1.66
2022-12-15T21:44:37.907Z,1.98
2022-12-15T21:47:53.230Z,1.99
2022-12-15T21:50:22.327Z,2.20
2022-12-15T21:52:50.013Z,2.06
2022-12-15T21:55:24.245Z,2.14
2022-12-15T21:57:51.975Z,2.34
2022-12-15T22:00:20.442Z,2.46
2022-12-15T22:02:49.293Z,2.58
2022-12-15T22:05:19.173Z,2.31
2022-12-15T22:07:46.763Z,2.65
2022-12-15T22:10:14.944Z,1.91
2022-12-15T22:12:44.096Z,2.35
2022-12-15T22:15:16.464Z,2.28
2022-12-15T22:17:44.336Z,2.41
2022-12-15T22:20:16.711Z,2.21
2022-12-15T22:22:45.113Z,2.33
2022-12-15T22:25:19.869Z,2.51
2022-12-15T22:27:48.029Z,2.34
2022-12-15T22:30:21.718Z,2.31
2022-12-15T22:32:49.313Z,1.89
2022-12-15T22:35:18.608Z,1.82
2022-12-15T22:37:46.109Z,2.17
2022-12-15T22:40:14.472Z,2.47
2022-12-15T22:42:44.586Z,2.37
2022-12-15T22:45:19.812Z,2.38
2022-12-15T22:47:48.651Z,2.88
2022-12-15T22:50:21.719Z,2.99
2022-12-15T22:52:49.738Z,2.76
2022-12-15T22:55:20.506Z,2.75
2022-12-15T22:57:55.358Z,2.96
2022-12-15T23:00:23.054Z,2.63
2022-12-15T23:02:50.855Z,2.56
2022-12-15T23:05:19.985Z,2.81
2022-12-15T23:07:47.667Z,2.19
2022-12-15T23:10:35.611Z,1.99
2022-12-15T23:13:03.407Z,2.10
2022-12-15T23:15:50.535Z,1.78
2022-12-15T23:18:19.411Z,1.93
2022-12-15T23:20:46.763Z,2.43
2022-12-15T23:23:15.383Z,2.41
2022-12-15T23:25:44.075Z,2.21
2022-12-15T23:28:11.418Z,2.11
2022-12-15T23:30:38.867Z,2.36
2022-12-15T23:33:06.498Z,1.94
2022-12-15T23:35:33.956Z,2.69
2022-12-15T23:38:01.336Z,2.39
2022-12-15T23:40:29.118Z,2.19
2022-12-15T23:42:56.493Z,2.57
2022-12-15T23:45:23.868Z,1.75
2022-12-15T23:47:51.481Z,2.03
2022-12-15T23:50:19.156Z,2.52
2022-12-15T23:52:50.288Z,2.28
2022-12-15T23:55:19.659Z,2.22
2022-12-15T23:57:47.039Z,2.43
